createdAt,value
2022-11-25T00:01:57.712Z,11.60
2022-11-25T00:07:03.368Z,10.97
2022-11-25T00:12:08.692Z,10.57
2022-11-25T00:17:13.913Z,10.80
2022-11-25T00:22:19.242Z,10.47
2022-11-25T00:27:24.542Z,9.83
2022-11-25T00:32:30.302Z,8.60
2022-11-25T00:37:35.601Z,9.33
2022-11-25T00:42:58.970Z,7.63
2022-11-25T00:48:04.316Z,18.80
2022-11-25T00:53:09.619Z,9.20
2022-11-25T00:58:14.909Z,11.73
2022-11-25T01:03:20.231Z,9.70
2022-11-25T01:08:25.436Z,7.60
2022-11-25T01:13:31.157Z,9.17
2022-11-25T01:18:36.752Z,10.37
2022-11-25T01:23:43.753Z,9.47
2022-11-25T01:28:50.047Z,10.37
2022-11-25T01:33:58.312Z,12.03
2022-11-25T01:39:04.411Z,8.77
2022-11-25T01:44:15.779Z,8.30
2022-11-25T01:49:27.103Z,6.83
2022-11-25T01:54:36.114Z,11.50
2022-11-25T01:59:44.632Z,8.47
2022-11-25T02:04:50.526Z,7.57
2022-11-25T02:09:57.594Z,9.17
2022-11-25T02:15:02.875Z,8.07
2022-11-25T02:20:13.862Z,9.77
2022-11-25T02:25:21.818Z,10.67
2022-11-25T02:30:27.154Z,7.97
2022-11-25T02:35:43.064Z,9.77
2022-11-25T02:40:59.950Z,9.53
2022-11-25T02:46:11.106Z,8.73
2022-11-25T02:51:18.722Z,10.43
2022-11-25T02:56:27.539Z,8.30
2022-11-25T03:01:35.477Z,10.30
2022-11-25T03:06:41.257Z,8.30
2022-11-25T03:12:04.223Z,9.20
2022-11-25T03:17:09.553Z,9.87
2022-11-25T03:22:14.940Z,10.20
2022-11-25T03:27:20.163Z,8.63
2022-11-25T03:32:26.264Z,10.70
2022-11-25T03:37:31.656Z,7.40
2022-11-25T03:42:37.494Z,8.10
2022-11-25T03:47:43.942Z,7.83
2022-11-25T03:52:49.356Z,7.33
2022-11-25T03:57:55.166Z,7.47
2022-11-25T04:03:00.514Z,8.20
2022-11-25T04:08:06.352Z,8.50
2022-11-25T04:13:11.819Z,8.67
2022-11-25T04:18:19.417Z,10.07
2022-11-25T04:23:25.529Z,8.90
2022-11-25T04:28:30.817Z,7.90
2022-11-25T04:33:37.072Z,6.40
2022-11-25T04:38:42.472Z,9.43
2022-11-25T04:43:47.833Z,10.87
2022-11-25T04:48:53.710Z,8.90
2022-11-25T04:53:59.390Z,8.73
2022-11-25T04:59:23.420Z,7.37
2022-11-25T05:04:29.139Z,8.93
2022-11-25T05:09:34.604Z,7.87
2022-11-25T05:14:39.981Z,10.00
2022-11-25T05:19:46.399Z,8.13
2022-11-25T05:24:51.774Z,7.43
2022-11-25T05:29:57.125Z,7.97
2022-11-25T05:35:02.611Z,8.33
2022-11-25T05:40:08.680Z,7.67
2022-11-25T05:45:13.852Z,6.37
2022-11-25T05:50:19.184Z,11.90
2022-11-25T05:55:26.917Z,8.77
2022-11-25T06:00:32.187Z,9.67
2022-11-25T06:05:37.510Z,10.33
2022-11-25T06:10:42.914Z,10.83
2022-11-25T06:15:48.714Z,13.37
2022-11-25T06:21:00.383Z,11.57
2022-11-25T06:26:23.356Z,14.37
2022-11-25T06:31:28.778Z,10.87
2022-11-25T06:36:34.183Z,9.77
2022-11-25T06:41:39.427Z,11.33
2022-11-25T06:46:45.203Z,13.70
2022-11-25T06:51:52.013Z,12.23
2022-11-25T06:57:04.550Z,10.50
2022-11-25T07:02:13.371Z,10.47
2022-11-25T07:07:19.366Z,8.67
2022-11-25T07:12:24.824Z,12.67
2022-11-25T07:17:31.571Z,9.37
2022-11-25T07:22:37.008Z,8.57
2022-11-25T07:27:42.436Z,7.53
2022-11-25T07:32:47.877Z,6.60
2022-11-25T07:37:53.337Z,10.53
2022-11-25T07:42:58.837Z,9.07
2022-11-25T07:48:04.164Z,6.93
2022-11-25T07:53:09.514Z,12.37
2022-11-25T07:58:14.776Z,9.67
2022-11-25T08:03:20.959Z,11.13
2022-11-25T08:08:26.531Z,7.20
2022-11-25T08:13:32.846Z,7.00
2022-11-25T08:18:38.273Z,8.87
2022-11-25T08:23:46.820Z,7.40
2022-11-25T08:28:52.261Z,5.30
2022-11-25T08:33:59.235Z,7.90
2022-11-25T08:39:28.864Z,9.10
2022-11-25T08:44:14.525Z,8.73
2022-11-25T08:49:19.984Z,8.67
2022-11-25T08:54:25.438Z,8.37
2022-11-25T08:59:30.801Z,7.93
2022-11-25T09:04:36.843Z,8.43
2022-11-25T09:09:42.229Z,8.20
2022-11-25T09:14:47.532Z,7.73
2022-11-25T09:19:52.840Z,8.83
2022-11-25T09:24:58.733Z,10.20
2022-11-25T09:30:04.244Z,11.97
2022-11-25T09:35:09.602Z,8.70
2022-11-25T09:40:23.917Z,11.97
2022-11-25T09:46:08.197Z,10.23
2022-11-25T09:51:26.150Z,20.33
2022-11-25T09:56:34.591Z,13.27
2022-11-25T10:01:51.777Z,17.53
2022-11-25T10:07:01.445Z,13.00
2022-11-25T10:12:15.401Z,9.77
2022-11-25T10:17:45.336Z,10.33
2022-11-25T10:22:56.162Z,8.03
2022-11-25T10:28:04.082Z,8.17
2022-11-25T10:33:17.841Z,9.13
2022-11-25T10:38:26.151Z,11.53
2022-11-25T10:43:33.404Z,9.13
2022-11-25T10:48:58.360Z,9.27
2022-11-25T10:54:26.857Z,8.90
2022-11-25T10:59:29.925Z,8.47
2022-11-25T11:04:35.927Z,10.67
2022-11-25T11:09:42.426Z,10.97
2022-11-25T11:14:48.134Z,12.53
2022-11-25T11:20:11.052Z,10.83
2022-11-25T11:25:25.236Z,12.43
2022-11-25T11:30:33.535Z,10.30
2022-11-25T11:36:17.020Z,10.40
2022-11-25T11:41:37.396Z,10.77
2022-11-25T11:46:46.080Z,8.93
2022-11-25T11:52:12.188Z,12.83
2022-11-25T11:57:37.097Z,9.67
2022-11-25T12:03:02.863Z,8.63
2022-11-25T12:08:19.862Z,14.80
2022-11-25T12:13:28.160Z,10.17
2022-11-25T12:18:59.985Z,8.73
2022-11-25T12:24:32.402Z,8.63
2022-11-25T12:29:47.064Z,10.70
2022-11-25T12:35:01.379Z,10.83
2022-11-25T12:40:12.728Z,8.93
2022-11-25T12:45:23.928Z,8.87
2022-11-25T12:50:53.532Z,10.07
2022-11-25T12:56:01.218Z,11.17
2022-11-25T13:01:27.621Z,9.73
2022-11-25T13:06:47.819Z,12.03
2022-11-25T13:11:56.411Z,11.33
2022-11-25T13:17:02.678Z,11.53
2022-11-25T13:22:25.063Z,9.77
2022-11-25T13:27:37.718Z,9.13
2022-11-25T13:32:43.124Z,8.47
2022-11-25T13:37:49.179Z,9.93
2022-11-25T13:42:55.729Z,9.70
2022-11-25T13:48:25.374Z,10.00
2022-11-25T13:53:36.394Z,10.13
2022-11-25T13:58:43.180Z,14.90
2022-11-25T14:03:50.849Z,12.40
2022-11-25T14:09:16.929Z,16.23
2022-11-25T14:14:49.228Z,11.10
2022-11-25T14:20:16.089Z,11.60
2022-11-25T14:25:25.914Z,10.67
2022-11-25T14:30:31.836Z,8.07
2022-11-25T14:35:49.410Z,9.40
2022-11-25T14:41:03.572Z,8.67
2022-11-25T14:46:26.672Z,7.07
2022-11-25T14:51:53.656Z,8.87
2022-11-25T14:57:04.771Z,6.93
2022-11-25T15:02:28.946Z,10.07
2022-11-25T15:07:43.605Z,7.73
2022-11-25T15:12:53.642Z,7.90
2022-11-25T15:29:24.210Z,8.87
2022-11-25T15:34:31.119Z,9.60
2022-11-25T15:39:40.767Z,9.23
2022-11-25T15:45:06.989Z,9.53
2022-11-25T15:50:27.250Z,8.07
2022-11-25T15:55:39.385Z,7.77
2022-11-25T16:01:02.475Z,8.87
2022-11-25T16:06:25.949Z,7.87
2022-11-25T16:11:36.322Z,6.93
2022-11-25T16:16:41.766Z,7.70
2022-11-25T16:21:50.061Z,6.83
2022-11-25T16:27:09.851Z,8.00
2022-11-25T16:32:32.236Z,8.47
2022-11-25T16:37:42.715Z,8.77
2022-11-25T16:42:51.880Z,8.73
2022-11-25T16:47:57.342Z,9.50
2022-11-25T16:53:17.130Z,9.40
2022-11-25T17:04:21.124Z,10.70
2022-11-25T17:09:29.677Z,10.87
2022-11-25T17:14:39.224Z,13.80
2022-11-25T17:19:57.569Z,11.87
2022-11-25T17:25:13.405Z,11.30
2022-11-25T17:30:22.069Z,12.67
2022-11-25T17:35:27.562Z,11.87
2022-11-25T17:40:33.227Z,11.50
2022-11-25T17:45:38.704Z,12.90
2022-11-25T17:50:46.002Z,15.33
2022-11-25T17:55:52.977Z,16.50
2022-11-25T18:00:58.223Z,16.43
2022-11-25T18:06:04.831Z,12.67
2022-11-25T18:11:13.137Z,11.93
2022-11-25T18:16:20.821Z,14.57
2022-11-25T18:21:26.786Z,13.30
2022-11-25T18:26:34.756Z,12.93
2022-11-25T18:31:45.386Z,11.40
2022-11-25T18:36:51.796Z,15.33
2022-11-25T18:41:58.808Z,12.80
2022-11-25T18:47:12.513Z,9.00
2022-11-25T18:52:24.962Z,12.00
2022-11-25T18:57:30.937Z,11.53
2022-11-25T19:02:36.787Z,12.93
2022-11-25T19:07:42.527Z,15.17
2022-11-25T19:12:51.337Z,12.40
2022-11-25T19:18:02.474Z,12.37
2022-11-25T19:23:16.819Z,12.87
2022-11-25T19:28:23.302Z,11.27
2022-11-25T19:33:37.238Z,10.03
2022-11-25T19:38:42.704Z,8.03
2022-11-25T19:43:48.394Z,9.27
2022-11-25T19:48:56.277Z,9.57
2022-11-25T19:54:01.505Z,9.73
2022-11-25T19:59:08.103Z,8.77
2022-11-25T20:04:16.426Z,9.10
2022-11-25T20:09:27.380Z,7.00
2022-11-25T20:14:35.155Z,9.70
2022-11-25T20:19:43.061Z,11.63
2022-11-25T20:24:48.835Z,9.57
2022-11-25T20:29:55.046Z,9.20
2022-11-25T20:35:00.876Z,9.30
2022-11-25T20:40:09.070Z,7.97
2022-11-25T20:45:20.856Z,8.63
2022-11-25T20:50:26.279Z,15.33
2022-11-25T20:55:31.631Z,22.93
2022-11-25T21:00:38.353Z,22.20
2022-11-25T21:05:47.243Z,22.43
2022-11-25T21:10:57.794Z,21.30
2022-11-25T21:16:03.112Z,20.07
2022-11-25T21:21:17.339Z,18.40
2022-11-25T21:26:25.783Z,12.57
2022-11-25T21:31:32.036Z,8.87
2022-11-25T21:36:38.463Z,10.87
2022-11-25T21:41:43.874Z,9.13
2022-11-25T21:46:49.060Z,9.90
2022-11-25T21:51:55.882Z,9.80
2022-11-25T21:57:01.189Z,7.80
2022-11-25T22:02:18.161Z,10.40
2022-11-25T22:07:30.766Z,11.03
2022-11-25T22:12:40.892Z,11.20
2022-11-25T22:17:41.629Z,11.93
2022-11-25T22:22:46.965Z,10.30
2022-11-25T22:27:52.458Z,11.87
2022-11-25T22:33:02.618Z,12.77
2022-11-25T22:38:19.138Z,12.17
2022-11-25T22:43:27.368Z,13.97
2022-11-25T22:48:38.309Z,13.40
2022-11-25T22:53:43.614Z,13.07
2022-11-25T22:58:49.102Z,16.07
2022-11-25T23:03:54.313Z,11.90
2022-11-25T23:08:59.602Z,16.13
2022-11-25T23:14:04.734Z,15.27
2022-11-25T23:19:17.610Z,16.97
2022-11-25T23:24:22.862Z,12.63
2022-11-25T23:29:28.097Z,12.73
2022-11-25T23:34:33.713Z,12.17
2022-11-25T23:39:39.520Z,11.20
2022-11-25T23:44:44.794Z,12.77
2022-11-25T23:49:53.062Z,12.17
2022-11-25T23:54:58.710Z,12.13
